sensor_id;sensor_type;location;lat;lon;timestamp;P1;durP1;ratioP1;P2;durP2;ratioP2
39102;SDS011;24847;48.218;16.414;2022-08-21T00:04:11;1.50;;;1.40;;
39102;SDS011;24847;48.218;16.414;2022-08-21T00:09:15;1.40;;;1.30;;
39102;SDS011;24847;48.218;16.414;2022-08-21T00:14:17;1.63;;;1.52;;
39102;SDS011;24847;48.218;16.414;2022-08-21T00:19:20;1.40;;;1.30;;
39102;SDS011;24847;48.218;16.414;2022-08-21T00:24:26;1.33;;;1.20;;
39102;SDS011;24847;48.218;16.414;2022-08-21T00:29:28;1.30;;;1.17;;
39102;SDS011;24847;48.218;16.414;2022-08-21T00:34:31;1.33;;;1.23;;
39102;SDS011;24847;48.218;16.414;2022-08-21T00:39:34;1.40;;;1.30;;
39102;SDS011;24847;48.218;16.414;2022-08-21T00:44:37;1.60;;;1.50;;
39102;SDS011;24847;48.218;16.414;2022-08-21T00:49:39;1.92;;;1.52;;
39102;SDS011;24847;48.218;16.414;2022-08-21T00:54:43;1.60;;;1.50;;
39102;SDS011;24847;48.218;16.414;2022-08-21T00:59:48;1.35;;;1.25;;
39102;SDS011;24847;48.218;16.414;2022-08-21T01:04:52;1.90;;;1.58;;
39102;SDS011;24847;48.218;16.414;2022-08-21T01:09:56;1.83;;;1.73;;
39102;SDS011;24847;48.218;16.414;2022-08-21T01:14:59;1.83;;;1.73;;
39102;SDS011;24847;48.218;16.414;2022-08-21T01:20:06;1.67;;;1.58;;
39102;SDS011;24847;48.218;16.414;2022-08-21T01:25:17;2.08;;;1.50;;
39102;SDS011;24847;48.218;16.414;2022-08-21T01:30:22;1.77;;;1.67;;
39102;SDS011;24847;48.218;16.414;2022-08-21T01:35:26;1.85;;;1.75;;
39102;SDS011;24847;48.218;16.414;2022-08-21T01:40:30;2.25;;;2.05;;
39102;SDS011;24847;48.218;16.414;2022-08-21T01:45:33;2.17;;;2.08;;
39102;SDS011;24847;48.218;16.414;2022-08-21T01:50:35;2.42;;;2.22;;
39102;SDS011;24847;48.218;16.414;2022-08-21T01:55:39;2.50;;;2.30;;
39102;SDS011;24847;48.218;16.414;2022-08-21T02:00:42;1.75;;;1.65;;
39102;SDS011;24847;48.218;16.414;2022-08-21T02:05:44;1.80;;;1.70;;
39102;SDS011;24847;48.218;16.414;2022-08-21T02:10:48;1.63;;;1.52;;
39102;SDS011;24847;48.218;16.414;2022-08-21T02:15:51;1.60;;;1.50;;
39102;SDS011;24847;48.218;16.414;2022-08-21T02:20:53;1.40;;;1.30;;
39102;SDS011;24847;48.218;16.414;2022-08-21T02:25:58;1.67;;;1.40;;
39102;SDS011;24847;48.218;16.414;2022-08-21T02:31:01;1.50;;;1.40;;
39102;SDS011;24847;48.218;16.414;2022-08-21T02:36:05;1.30;;;1.20;;
39102;SDS011;24847;48.218;16.414;2022-08-21T02:41:12;1.42;;;1.33;;
39102;SDS011;24847;48.218;16.414;2022-08-21T02:46:18;1.42;;;1.33;;
39102;SDS011;24847;48.218;16.414;2022-08-21T02:51:21;1.50;;;1.40;;
39102;SDS011;24847;48.218;16.414;2022-08-21T02:56:26;1.60;;;1.50;;
39102;SDS011;24847;48.218;16.414;2022-08-21T03:01:29;1.92;;;1.25;;
39102;SDS011;24847;48.218;16.414;2022-08-21T03:06:31;1.55;;;1.45;;
39102;SDS011;24847;48.218;16.414;2022-08-21T03:11:35;1.23;;;1.15;;
39102;SDS011;24847;48.218;16.414;2022-08-21T03:16:38;1.50;;;1.40;;
39102;SDS011;24847;48.218;16.414;2022-08-21T03:21:42;2.00;;;1.20;;
39102;SDS011;24847;48.218;16.414;2022-08-21T03:26:45;1.33;;;1.10;;
39102;SDS011;24847;48.218;16.414;2022-08-21T03:31:48;0.93;;;0.93;;
39102;SDS011;24847;48.218;16.414;2022-08-21T03:36:51;1.02;;;1.00;;
39102;SDS011;24847;48.218;16.414;2022-08-21T03:41:55;0.90;;;0.90;;
39102;SDS011;24847;48.218;16.414;2022-08-21T03:46:57;0.70;;;0.70;;
39102;SDS011;24847;48.218;16.414;2022-08-21T03:51:59;0.70;;;0.70;;
39102;SDS011;24847;48.218;16.414;2022-08-21T03:57:03;0.70;;;0.70;;
39102;SDS011;24847;48.218;16.414;2022-08-21T04:02:06;0.77;;;0.77;;
39102;SDS011;24847;48.218;16.414;2022-08-21T04:07:08;0.73;;;0.73;;
39102;SDS011;24847;48.218;16.414;2022-08-21T04:12:12;0.90;;;0.90;;
39102;SDS011;24847;48.218;16.414;2022-08-21T04:17:14;1.23;;;1.13;;
39102;SDS011;24847;48.218;16.414;2022-08-21T04:22:17;1.15;;;1.00;;
39102;SDS011;24847;48.218;16.414;2022-08-21T04:27:20;0.80;;;0.80;;
39102;SDS011;24847;48.218;16.414;2022-08-21T04:32:23;1.25;;;0.90;;
39102;SDS011;24847;48.218;16.414;2022-08-21T04:37:26;0.80;;;0.80;;
39102;SDS011;24847;48.218;16.414;2022-08-21T04:42:30;1.75;;;0.80;;
39102;SDS011;24847;48.218;16.414;2022-08-21T04:47:32;1.05;;;0.95;;
39102;SDS011;24847;48.218;16.414;2022-08-21T04:52:35;1.30;;;1.20;;
39102;SDS011;24847;48.218;16.414;2022-08-21T04:57:39;1.30;;;1.20;;
39102;SDS011;24847;48.218;16.414;2022-08-21T05:02:43;1.30;;;1.20;;
39102;SDS011;24847;48.218;16.414;2022-08-21T05:07:47;1.35;;;1.25;;
39102;SDS011;24847;48.218;16.414;2022-08-21T05:12:51;1.85;;;1.42;;
39102;SDS011;24847;48.218;16.414;2022-08-21T05:17:54;1.40;;;1.30;;
39102;SDS011;24847;48.218;16.414;2022-08-21T05:22:56;1.13;;;1.02;;
39102;SDS011;24847;48.218;16.414;2022-08-21T05:28:00;1.35;;;1.25;;
39102;SDS011;24847;48.218;16.414;2022-08-21T05:33:03;1.70;;;1.60;;
39102;SDS011;24847;48.218;16.414;2022-08-21T05:38:08;2.15;;;1.77;;
39102;SDS011;24847;48.218;16.414;2022-08-21T05:43:12;1.80;;;1.70;;
39102;SDS011;24847;48.218;16.414;2022-08-21T05:48:16;1.80;;;1.70;;
39102;SDS011;24847;48.218;16.414;2022-08-21T05:53:21;1.80;;;1.70;;
39102;SDS011;24847;48.218;16.414;2022-08-21T05:58:26;1.65;;;1.55;;
39102;SDS011;24847;48.218;16.414;2022-08-21T06:03:32;1.88;;;1.77;;
39102;SDS011;24847;48.218;16.414;2022-08-21T06:08:37;1.70;;;1.60;;
39102;SDS011;24847;48.218;16.414;2022-08-21T06:13:41;1.70;;;1.60;;
39102;SDS011;24847;48.218;16.414;2022-08-21T06:18:44;2.33;;;1.73;;
39102;SDS011;24847;48.218;16.414;2022-08-21T06:23:46;2.53;;;1.90;;
39102;SDS011;24847;48.218;16.414;2022-08-21T06:28:50;2.35;;;2.15;;
39102;SDS011;24847;48.218;16.414;2022-08-21T06:33:52;2.00;;;1.90;;
39102;SDS011;24847;48.218;16.414;2022-08-21T06:38:55;2.00;;;1.90;;
39102;SDS011;24847;48.218;16.414;2022-08-21T06:43:58;2.55;;;2.10;;
39102;SDS011;24847;48.218;16.414;2022-08-21T06:49:00;1.98;;;1.88;;
39102;SDS011;24847;48.218;16.414;2022-08-21T06:54:03;2.00;;;1.90;;
39102;SDS011;24847;48.218;16.414;2022-08-21T06:59:07;2.20;;;2.00;;
39102;SDS011;24847;48.218;16.414;2022-08-21T07:04:09;2.00;;;1.90;;
39102;SDS011;24847;48.218;16.414;2022-08-21T07:09:11;2.70;;;2.42;;
39102;SDS011;24847;48.218;16.414;2022-08-21T07:14:15;2.67;;;2.33;;
39102;SDS011;24847;48.218;16.414;2022-08-21T07:19:18;2.20;;;2.10;;
39102;SDS011;24847;48.218;16.414;2022-08-21T07:24:20;2.38;;;2.22;;
39102;SDS011;24847;48.218;16.414;2022-08-21T07:29:24;2.50;;;2.30;;
39102;SDS011;24847;48.218;16.414;2022-08-21T07:34:26;2.83;;;2.63;;
39102;SDS011;24847;48.218;16.414;2022-08-21T07:39:29;2.17;;;2.08;;
39102;SDS011;24847;48.218;16.414;2022-08-21T07:44:33;2.75;;;2.53;;
39102;SDS011;24847;48.218;16.414;2022-08-21T07:49:35;2.33;;;2.13;;
39102;SDS011;24847;48.218;16.414;2022-08-21T07:54:37;2.40;;;2.20;;
39102;SDS011;24847;48.218;16.414;2022-08-21T07:59:41;2.20;;;2.10;;
39102;SDS011;24847;48.218;16.414;2022-08-21T08:04:43;1.88;;;1.77;;
39102;SDS011;24847;48.218;16.414;2022-08-21T08:09:45;2.40;;;2.25;;
39102;SDS011;24847;48.218;16.414;2022-08-21T08:14:49;2.50;;;2.30;;
39102;SDS011;24847;48.218;16.414;2022-08-21T08:19:51;2.95;;;2.75;;
39102;SDS011;24847;48.218;16.414;2022-08-21T08:24:55;2.05;;;1.95;;
39102;SDS011;24847;48.218;16.414;2022-08-21T08:29:59;3.55;;;2.90;;
39102;SDS011;24847;48.218;16.414;2022-08-21T08:35:01;2.75;;;2.55;;
39102;SDS011;24847;48.218;16.414;2022-08-21T08:40:05;2.92;;;2.70;;
39102;SDS011;24847;48.218;16.414;2022-08-21T08:45:16;2.35;;;2.15;;
39102;SDS011;24847;48.218;16.414;2022-08-21T08:50:24;2.45;;;2.25;;
39102;SDS011;24847;48.218;16.414;2022-08-21T08:55:32;2.47;;;2.28;;
39102;SDS011;24847;48.218;16.414;2022-08-21T09:00:40;2.90;;;2.70;;
39102;SDS011;24847;48.218;16.414;2022-08-21T09:05:44;4.57;;;2.33;;
39102;SDS011;24847;48.218;16.414;2022-08-21T09:10:52;2.60;;;2.40;;
39102;SDS011;24847;48.218;16.414;2022-08-21T09:16:05;2.40;;;2.20;;
39102;SDS011;24847;48.218;16.414;2022-08-21T09:21:18;1.83;;;1.73;;
39102;SDS011;24847;48.218;16.414;2022-08-21T09:26:31;2.53;;;2.33;;
39102;SDS011;24847;48.218;16.414;2022-08-21T09:31:47;2.22;;;2.03;;
39102;SDS011;24847;48.218;16.414;2022-08-21T09:36:50;2.03;;;1.90;;
39102;SDS011;24847;48.218;16.414;2022-08-21T09:41:57;2.13;;;1.92;;
39102;SDS011;24847;48.218;16.414;2022-08-21T09:47:02;1.50;;;1.40;;
39102;SDS011;24847;48.218;16.414;2022-08-21T09:52:06;1.42;;;1.33;;
39102;SDS011;24847;48.218;16.414;2022-08-21T09:57:22;1.40;;;1.17;;
39102;SDS011;24847;48.218;16.414;2022-08-21T10:02:41;1.38;;;1.27;;
39102;SDS011;24847;48.218;16.414;2022-08-21T10:07:43;2.42;;;1.20;;
39102;SDS011;24847;48.218;16.414;2022-08-21T10:12:48;1.00;;;0.90;;
39102;SDS011;24847;48.218;16.414;2022-08-21T10:18:01;1.20;;;1.10;;
39102;SDS011;24847;48.218;16.414;2022-08-21T10:23:15;1.27;;;1.08;;
39102;SDS011;24847;48.218;16.414;2022-08-21T10:28:31;1.45;;;1.35;;
39102;SDS011;24847;48.218;16.414;2022-08-21T10:33:43;2.20;;;2.00;;
39102;SDS011;24847;48.218;16.414;2022-08-21T10:39:06;2.08;;;1.92;;
39102;SDS011;24847;48.218;16.414;2022-08-21T10:44:24;2.40;;;2.20;;
39102;SDS011;24847;48.218;16.414;2022-08-21T10:49:38;2.10;;;2.00;;
39102;SDS011;24847;48.218;16.414;2022-08-21T10:54:47;2.13;;;2.03;;
39102;SDS011;24847;48.218;16.414;2022-08-21T10:59:55;2.00;;;1.85;;
39102;SDS011;24847;48.218;16.414;2022-08-21T11:05:05;1.40;;;1.30;;
39102;SDS011;24847;48.218;16.414;2022-08-21T11:10:15;0.90;;;0.90;;
39102;SDS011;24847;48.218;16.414;2022-08-21T11:15:27;1.13;;;0.87;;
39102;SDS011;24847;48.218;16.414;2022-08-21T11:20:40;1.10;;;1.00;;
39102;SDS011;24847;48.218;16.414;2022-08-21T11:25:49;1.17;;;1.08;;
39102;SDS011;24847;48.218;16.414;2022-08-21T11:30:59;2.15;;;1.88;;
39102;SDS011;24847;48.218;16.414;2022-08-21T11:36:15;2.95;;;2.65;;
39102;SDS011;24847;48.218;16.414;2022-08-21T11:41:29;1.90;;;1.80;;
39102;SDS011;24847;48.218;16.414;2022-08-21T11:46:36;1.95;;;1.75;;
39102;SDS011;24847;48.218;16.414;2022-08-21T11:51:51;1.90;;;1.80;;
39102;SDS011;24847;48.218;16.414;2022-08-21T11:56:59;1.80;;;1.70;;
39102;SDS011;24847;48.218;16.414;2022-08-21T12:02:06;1.30;;;1.20;;
39102;SDS011;24847;48.218;16.414;2022-08-21T12:07:17;0.90;;;0.90;;
39102;SDS011;24847;48.218;16.414;2022-08-21T12:12:35;1.05;;;0.88;;
39102;SDS011;24847;48.218;16.414;2022-08-21T12:17:40;1.02;;;0.93;;
39102;SDS011;24847;48.218;16.414;2022-08-21T12:23:03;1.52;;;1.10;;
39102;SDS011;24847;48.218;16.414;2022-08-21T12:28:21;1.30;;;1.20;;
39102;SDS011;24847;48.218;16.414;2022-08-21T12:33:26;1.70;;;1.42;;
39102;SDS011;24847;48.218;16.414;2022-08-21T12:38:34;1.25;;;1.00;;
39102;SDS011;24847;48.218;16.414;2022-08-21T12:43:50;1.00;;;0.85;;
39102;SDS011;24847;48.218;16.414;2022-08-21T12:49:00;0.85;;;0.80;;
39102;SDS011;24847;48.218;16.414;2022-08-21T12:54:21;2.78;;;1.67;;
39102;SDS011;24847;48.218;16.414;2022-08-21T12:59:26;1.10;;;1.00;;
39102;SDS011;24847;48.218;16.414;2022-08-21T13:04:31;1.60;;;1.50;;
39102;SDS011;24847;48.218;16.414;2022-08-21T13:09:42;1.17;;;1.08;;
39102;SDS011;24847;48.218;16.414;2022-08-21T13:14:49;1.38;;;1.27;;
39102;SDS011;24847;48.218;16.414;2022-08-21T13:19:54;2.45;;;1.10;;
39102;SDS011;24847;48.218;16.414;2022-08-21T13:25:00;1.42;;;1.33;;
39102;SDS011;24847;48.218;16.414;2022-08-21T13:30:05;1.58;;;1.30;;
39102;SDS011;24847;48.218;16.414;2022-08-21T13:35:16;2.50;;;1.38;;
39102;SDS011;24847;48.218;16.414;2022-08-21T13:40:24;1.35;;;1.25;;
39102;SDS011;24847;48.218;16.414;2022-08-21T13:45:31;2.85;;;1.40;;
39102;SDS011;24847;48.218;16.414;2022-08-21T13:50:35;1.20;;;1.10;;
39102;SDS011;24847;48.218;16.414;2022-08-21T13:55:42;1.10;;;1.00;;
39102;SDS011;24847;48.218;16.414;2022-08-21T14:00:45;1.60;;;1.40;;
39102;SDS011;24847;48.218;16.414;2022-08-21T14:05:50;1.70;;;1.58;;
39102;SDS011;24847;48.218;16.414;2022-08-21T14:10:54;1.55;;;1.45;;
39102;SDS011;24847;48.218;16.414;2022-08-21T14:15:57;1.50;;;1.40;;
39102;SDS011;24847;48.218;16.414;2022-08-21T14:21:05;1.30;;;1.20;;
39102;SDS011;24847;48.218;16.414;2022-08-21T14:26:11;1.55;;;1.45;;
39102;SDS011;24847;48.218;16.414;2022-08-21T14:31:14;1.30;;;1.20;;
39102;SDS011;24847;48.218;16.414;2022-08-21T14:36:19;1.52;;;1.30;;
39102;SDS011;24847;48.218;16.414;2022-08-21T14:41:23;1.65;;;1.55;;
39102;SDS011;24847;48.218;16.414;2022-08-21T14:46:29;1.75;;;1.65;;
39102;SDS011;24847;48.218;16.414;2022-08-21T14:51:35;1.50;;;1.40;;
39102;SDS011;24847;48.218;16.414;2022-08-21T14:56:40;2.42;;;1.50;;
39102;SDS011;24847;48.218;16.414;2022-08-21T15:01:42;1.63;;;1.50;;
39102;SDS011;24847;48.218;16.414;2022-08-21T15:06:44;1.85;;;1.70;;
39102;SDS011;24847;48.218;16.414;2022-08-21T15:11:49;2.08;;;1.80;;
39102;SDS011;24847;48.218;16.414;2022-08-21T15:16:52;3.00;;;2.10;;
39102;SDS011;24847;48.218;16.414;2022-08-21T15:21:55;4.60;;;3.33;;
39102;SDS011;24847;48.218;16.414;2022-08-21T15:26:59;3.15;;;1.95;;
39102;SDS011;24847;48.218;16.414;2022-08-21T15:32:15;1.80;;;1.70;;
39102;SDS011;24847;48.218;16.414;2022-08-21T15:37:21;2.20;;;2.00;;
39102;SDS011;24847;48.218;16.414;2022-08-21T15:42:26;2.72;;;1.80;;
39102;SDS011;24847;48.218;16.414;2022-08-21T15:47:29;2.00;;;1.70;;
39102;SDS011;24847;48.218;16.414;2022-08-21T15:52:34;2.15;;;1.95;;
39102;SDS011;24847;48.218;16.414;2022-08-21T15:57:42;2.33;;;2.00;;
39102;SDS011;24847;48.218;16.414;2022-08-21T16:02:48;1.73;;;1.63;;
39102;SDS011;24847;48.218;16.414;2022-08-21T16:07:54;1.75;;;1.65;;
39102;SDS011;24847;48.218;16.414;2022-08-21T16:13:03;3.30;;;1.90;;
39102;SDS011;24847;48.218;16.414;2022-08-21T16:18:16;2.55;;;2.35;;
39102;SDS011;24847;48.218;16.414;2022-08-21T16:23:19;2.75;;;2.50;;
39102;SDS011;24847;48.218;16.414;2022-08-21T16:28:23;3.22;;;2.40;;
39102;SDS011;24847;48.218;16.414;2022-08-21T16:33:26;3.05;;;2.58;;
39102;SDS011;24847;48.218;16.414;2022-08-21T16:38:34;2.10;;;1.90;;
39102;SDS011;24847;48.218;16.414;2022-08-21T16:43:39;3.05;;;1.85;;
39102;SDS011;24847;48.218;16.414;2022-08-21T16:48:43;2.08;;;1.85;;
39102;SDS011;24847;48.218;16.414;2022-08-21T16:53:45;3.15;;;1.90;;
39102;SDS011;24847;48.218;16.414;2022-08-21T16:58:49;1.77;;;1.67;;
39102;SDS011;24847;48.218;16.414;2022-08-21T17:03:52;1.80;;;1.70;;
39102;SDS011;24847;48.218;16.414;2022-08-21T17:08:54;2.90;;;1.67;;
39102;SDS011;24847;48.218;16.414;2022-08-21T17:14:00;3.22;;;2.08;;
39102;SDS011;24847;48.218;16.414;2022-08-21T17:19:06;1.48;;;1.38;;
39102;SDS011;24847;48.218;16.414;2022-08-21T17:24:09;1.95;;;1.58;;
39102;SDS011;24847;48.218;16.414;2022-08-21T17:29:15;1.77;;;1.30;;
39102;SDS011;24847;48.218;16.414;2022-08-21T17:34:21;1.80;;;1.30;;
39102;SDS011;24847;48.218;16.414;2022-08-21T17:39:23;1.88;;;1.30;;
39102;SDS011;24847;48.218;16.414;2022-08-21T17:44:27;1.48;;;1.27;;
39102;SDS011;24847;48.218;16.414;2022-08-21T17:49:30;1.85;;;1.58;;
39102;SDS011;24847;48.218;16.414;2022-08-21T18:07:36;2.97;;;1.48;;
39102;SDS011;24847;48.218;16.414;2022-08-21T18:12:39;2.15;;;1.38;;
39102;SDS011;24847;48.218;16.414;2022-08-21T18:17:45;2.13;;;1.77;;
39102;SDS011;24847;48.218;16.414;2022-08-21T18:22:50;1.92;;;1.58;;
39102;SDS011;24847;48.218;16.414;2022-08-21T18:27:53;5.85;;;1.83;;
39102;SDS011;24847;48.218;16.414;2022-08-21T18:32:57;2.58;;;1.80;;
39102;SDS011;24847;48.218;16.414;2022-08-21T18:37:59;2.55;;;1.90;;
39102;SDS011;24847;48.218;16.414;2022-08-21T18:43:02;2.60;;;1.98;;
39102;SDS011;24847;48.218;16.414;2022-08-21T18:48:26;3.35;;;2.67;;
39102;SDS011;24847;48.218;16.414;2022-08-21T18:53:29;2.20;;;1.90;;
39102;SDS011;24847;48.218;16.414;2022-08-21T18:58:37;4.35;;;1.80;;
39102;SDS011;24847;48.218;16.414;2022-08-21T19:03:45;3.00;;;2.00;;
39102;SDS011;24847;48.218;16.414;2022-08-21T19:09:08;2.08;;;1.55;;
39102;SDS011;24847;48.218;16.414;2022-08-21T19:14:28;2.47;;;1.60;;
39102;SDS011;24847;48.218;16.414;2022-08-21T19:19:36;4.40;;;1.90;;
39102;SDS011;24847;48.218;16.414;2022-08-21T19:24:44;2.72;;;1.70;;
39102;SDS011;24847;48.218;16.414;2022-08-21T19:29:50;2.33;;;1.67;;
39102;SDS011;24847;48.218;16.414;2022-08-21T19:34:57;1.77;;;1.63;;
39102;SDS011;24847;48.218;16.414;2022-08-21T19:40:00;2.28;;;1.98;;
39102;SDS011;24847;48.218;16.414;2022-08-21T19:45:04;4.70;;;2.38;;
39102;SDS011;24847;48.218;16.414;2022-08-21T19:50:09;2.58;;;1.65;;
39102;SDS011;24847;48.218;16.414;2022-08-21T19:55:13;2.78;;;1.83;;
39102;SDS011;24847;48.218;16.414;2022-08-21T20:00:16;2.10;;;1.73;;
39102;SDS011;24847;48.218;16.414;2022-08-21T20:05:19;1.85;;;1.65;;
39102;SDS011;24847;48.218;16.414;2022-08-21T20:10:22;3.50;;;1.83;;
39102;SDS011;24847;48.218;16.414;2022-08-21T20:15:24;1.73;;;1.50;;
39102;SDS011;24847;48.218;16.414;2022-08-21T20:20:28;2.92;;;1.45;;
39102;SDS011;24847;48.218;16.414;2022-08-21T20:25:30;2.55;;;1.65;;
39102;SDS011;24847;48.218;16.414;2022-08-21T20:30:35;2.28;;;2.08;;
39102;SDS011;24847;48.218;16.414;2022-08-21T20:35:39;3.08;;;2.22;;
39102;SDS011;24847;48.218;16.414;2022-08-21T20:40:44;3.72;;;1.90;;
39102;SDS011;24847;48.218;16.414;2022-08-21T20:45:51;2.20;;;1.63;;
39102;SDS011;24847;48.218;16.414;2022-08-21T20:50:58;2.97;;;1.90;;
39102;SDS011;24847;48.218;16.414;2022-08-21T20:56:05;2.53;;;2.17;;
39102;SDS011;24847;48.218;16.414;2022-08-21T21:01:10;2.92;;;2.05;;
39102;SDS011;24847;48.218;16.414;2022-08-21T21:06:15;1.90;;;1.80;;
39102;SDS011;24847;48.218;16.414;2022-08-21T21:11:23;4.47;;;3.33;;
39102;SDS011;24847;48.218;16.414;2022-08-21T21:16:31;3.13;;;2.28;;
39102;SDS011;24847;48.218;16.414;2022-08-21T21:21:43;2.33;;;1.83;;
39102;SDS011;24847;48.218;16.414;2022-08-21T21:26:52;3.50;;;2.03;;
39102;SDS011;24847;48.218;16.414;2022-08-21T21:32:00;2.85;;;2.45;;
39102;SDS011;24847;48.218;16.414;2022-08-21T21:37:06;3.63;;;2.47;;
39102;SDS011;24847;48.218;16.414;2022-08-21T21:42:16;2.78;;;2.38;;
39102;SDS011;24847;48.218;16.414;2022-08-21T21:47:32;3.72;;;2.65;;
39102;SDS011;24847;48.218;16.414;2022-08-21T21:52:53;3.30;;;2.60;;
39102;SDS011;24847;48.218;16.414;2022-08-21T21:58:22;3.00;;;2.30;;
39102;SDS011;24847;48.218;16.414;2022-08-21T22:03:42;3.75;;;2.63;;
39102;SDS011;24847;48.218;16.414;2022-08-21T22:08:56;2.95;;;2.65;;
39102;SDS011;24847;48.218;16.414;2022-08-21T22:14:08;4.28;;;2.72;;
39102;SDS011;24847;48.218;16.414;2022-08-21T22:19:15;3.28;;;2.47;;
39102;SDS011;24847;48.218;16.414;2022-08-21T22:24:25;2.77;;;2.57;;
39102;SDS011;24847;48.218;16.414;2022-08-21T22:29:42;3.20;;;2.80;;
39102;SDS011;24847;48.218;16.414;2022-08-21T22:35:00;2.65;;;2.45;;
39102;SDS011;24847;48.218;16.414;2022-08-21T22:40:09;2.97;;;2.50;;
39102;SDS011;24847;48.218;16.414;2022-08-21T22:45:14;2.78;;;2.47;;
39102;SDS011;24847;48.218;16.414;2022-08-21T22:50:26;3.97;;;2.50;;
39102;SDS011;24847;48.218;16.414;2022-08-21T22:55:36;2.83;;;2.30;;
39102;SDS011;24847;48.218;16.414;2022-08-21T23:00:45;2.50;;;2.30;;
39102;SDS011;24847;48.218;16.414;2022-08-21T23:05:53;3.63;;;2.67;;
39102;SDS011;24847;48.218;16.414;2022-08-21T23:10:59;3.65;;;2.25;;
39102;SDS011;24847;48.218;16.414;2022-08-21T23:21:26;1.90;;;1.70;;
39102;SDS011;24847;48.218;16.414;2022-08-21T23:26:38;3.03;;;2.00;;
39102;SDS011;24847;48.218;16.414;2022-08-21T23:31:55;2.60;;;1.88;;
39102;SDS011;24847;48.218;16.414;2022-08-21T23:37:07;2.92;;;2.20;;
39102;SDS011;24847;48.218;16.414;2022-08-21T23:42:45;2.25;;;2.08;;
39102;SDS011;24847;48.218;16.414;2022-08-21T23:48:06;2.25;;;1.85;;
39102;SDS011;24847;48.218;16.414;2022-08-21T23:53:23;2.33;;;2.08;;
39102;SDS011;24847;48.218;16.414;2022-08-21T23:58:40;2.70;;;1.73;;
